Time;durP1;ratioP1;P1;durP2;ratioP2;P2;SDS_P1;SDS_P2;PMS_P1;PMS_P2;Temp;Humidity;BMP_temperature;BMP_pressure;BME280_temperature;BME280_humidity;BME280_pressure;Samples;Min_cycle;Max_cycle;Signal;HPM_P1;HPM_P2
2021/04/13 00:00:00;;;;;;;25.00;20.70;;;;;;;1.66;82.64;99653.28;113460;1203;64496;-79
2021/04/13 00:02:38;;;;;;;21.00;17.70;;;;;;;1.64;82.71;99657.73;113232;1203;64391;-80
2021/04/13 00:05:12;;;;;;;18.95;16.95;;;;;;;1.64;82.82;99660.35;113207;1203;64429;-78
2021/04/13 00:07:44;;;;;;;18.75;15.85;;;;;;;1.65;82.76;99656.81;113126;1203;64477;-78
2021/04/13 00:10:28;;;;;;;20.05;17.70;;;;;;;1.66;82.62;99663.80;113105;1203;64455;-78
2021/04/13 00:12:56;;;;;;;16.97;15.13;;;;;;;1.64;82.63;99663.84;113068;1203;64422;-78
2021/04/13 00:15:40;;;;;;;19.00;16.75;;;;;;;1.62;82.50;99664.77;113114;1203;64414;-78
2021/04/13 00:18:06;;;;;;;17.20;15.25;;;;;;;1.57;82.61;99672.73;113071;1203;64382;-78
2021/04/13 00:20:50;;;;;;;16.30;14.60;;;;;;;1.52;82.65;99669.33;113139;1203;64529;-79
2021/04/13 00:23:19;;;;;;;16.67;14.33;;;;;;;1.51;82.72;99671.09;113140;1203;64442;-79
2021/04/13 00:25:52;;;;;;;15.45;14.05;;;;;;;1.51;82.67;99667.61;113115;1203;64416;-79
2021/04/13 00:28:24;;;;;;;14.80;13.27;;;;;;;1.49;82.69;99666.77;113120;1203;64330;-79
2021/04/13 00:30:55;;;;;;;15.70;13.90;;;;;;;1.45;82.62;99668.59;113152;1203;64430;-79
2021/04/13 00:33:27;;;;;;;15.57;13.73;;;;;;;1.43;82.66;99662.50;113075;1203;64432;-79
2021/04/13 00:36:10;;;;;;;15.10;13.50;;;;;;;1.40;82.57;99670.44;113163;1203;64516;-79
2021/04/13 00:38:37;;;;;;;14.50;12.90;;;;;;;1.36;82.89;99671.38;113115;1203;64442;-79
2021/04/13 00:41:19;;;;;;;13.90;12.45;;;;;;;1.33;82.89;99671.44;113190;1203;64414;-79
2021/04/13 00:43:57;;;;;;;11.30;10.10;;;;;;;1.35;83.16;99668.80;113208;1203;64327;-79
2021/04/13 00:46:34;;;;;;;13.50;12.20;;;;;;;1.31;82.81;99673.22;113227;1203;64483;-79
2021/04/13 00:49:02;;;;;;;15.00;12.30;;;;;;;1.30;83.07;99672.36;113280;1203;64397;-79
2021/04/13 00:51:44;;;;;;;15.40;13.80;;;;;;;1.30;82.92;99669.73;113401;1201;64427;-79
2021/04/13 00:54:26;;;;;;;13.60;12.10;;;;;;;1.31;82.99;99667.97;113366;1203;64343;-79
2021/04/13 00:56:54;;;;;;;14.70;13.20;;;;;;;1.28;82.93;99671.52;113343;1203;64391;-79
2021/04/13 00:59:22;;;;;;;12.95;11.55;;;;;;;1.26;82.82;99677.69;113094;1203;64462;-79
2021/04/13 01:01:58;;;;;;;12.30;11.10;;;;;;;1.28;82.96;99681.16;113147;1203;64391;-79
2021/04/13 01:04:32;;;;;;;13.30;11.90;;;;;;;1.26;83.17;99675.95;113130;1203;64388;-79
2021/04/13 01:07:06;;;;;;;14.70;11.50;;;;;;;1.25;83.05;99681.22;113137;1203;64397;-79
2021/04/13 01:09:45;;;;;;;13.30;11.90;;;;;;;1.22;82.99;99682.14;113124;1203;64346;-79
2021/04/13 01:12:30;;;;;;;15.37;13.77;;;;;;;1.23;83.34;99668.11;113122;1203;64359;-79
2021/04/13 01:14:57;;;;;;;14.40;12.85;;;;;;;1.26;83.03;99685.56;113325;1203;64435;-79
2021/04/13 01:17:25;;;;;;;13.45;12.10;;;;;;;1.27;82.93;99688.17;113333;1203;64407;-79
2021/04/13 01:20:38;;;;;;;12.90;11.60;;;;;;;1.27;83.11;99682.92;113268;1203;64359;-80
2021/04/13 01:25:42;;;;;;;13.65;12.25;;;;;;;1.30;83.13;99692.51;113066;1203;64825;-79
2021/04/13 01:28:14;;;;;;;13.20;11.90;;;;;;;1.26;83.12;99696.06;113132;1203;64430;-79
2021/04/13 01:30:46;;;;;;;13.80;12.50;;;;;;;1.20;82.91;99691.80;113338;1203;64388;-79
2021/04/13 01:33:23;;;;;;;15.20;13.60;;;;;;;1.18;83.23;99690.95;113400;1203;64406;-79
2021/04/13 01:35:55;;;;;;;13.65;12.20;;;;;;;1.18;83.56;99690.09;113298;1203;64397;-79
2021/04/13 01:38:27;;;;;;;14.60;13.00;;;;;;;1.22;83.15;99695.27;113360;1203;64551;-79
2021/04/13 01:41:21;;;;;;;14.37;12.70;;;;;;;1.23;83.38;99688.25;113245;1203;64416;-79
2021/04/13 01:43:49;;;;;;;15.40;13.80;;;;;;;1.24;83.28;99698.73;113127;1203;64371;-79
2021/04/13 01:46:17;;;;;;;13.00;11.80;;;;;;;1.27;83.03;99696.05;113135;1203;64366;-80
2021/04/13 01:48:43;;;;;;;13.90;12.35;;;;;;;1.25;83.14;99692.58;113274;1203;64410;-79
2021/04/13 01:51:12;;;;;;;13.90;12.40;;;;;;;1.26;83.40;99703.94;113114;1203;64455;-79
2021/04/13 01:53:47;;;;;;;14.13;12.50;;;;;;;1.23;83.37;99704.86;113126;1203;64506;-79
2021/04/13 01:56:46;;;;;;;13.15;11.85;;;;;;;1.22;83.39;99705.77;113297;1203;64423;-79
2021/04/13 01:59:22;;;;;;;14.20;11.10;;;;;;;1.24;83.38;99714.49;113137;1203;64473;-79
2021/04/13 02:01:59;;;;;;;11.17;10.07;;;;;;;1.27;83.35;99709.19;113088;1203;64474;-79
2021/04/13 02:04:30;;;;;;;12.53;11.33;;;;;;;1.25;83.39;99718.84;113300;1203;64414;-79
2021/04/13 02:07:17;;;;;;;12.20;10.90;;;;;;;1.26;83.30;99717.08;113197;1203;64433;-80
2021/04/13 02:09:50;;;;;;;12.13;10.80;;;;;;;1.26;83.28;99714.45;113305;1203;64430;-79
2021/04/13 02:12:24;;;;;;;12.85;11.55;;;;;;;1.24;83.34;99713.63;113358;1203;64324;-79
2021/04/13 02:15:03;;;;;;;13.73;11.53;;;;;;;1.21;83.23;99719.80;113190;1203;64423;-83
2021/04/13 02:17:48;;;;;;;12.90;11.50;;;;;;;1.20;83.30;99717.19;113324;1203;64537;-81
2021/04/13 02:20:24;;;;;;;10.30;9.30;;;;;;;1.20;83.43;99712.80;113362;1203;64439;-80
2021/04/13 02:22:52;;;;;;;10.25;9.15;;;;;;;1.17;83.37;99715.48;113231;1203;64320;-83
2021/04/13 02:25:25;;;;;;;10.65;9.55;;;;;;;1.23;83.34;99717.13;113358;1203;64381;-80
2021/04/13 02:27:53;;;;;;;10.65;9.60;;;;;;;1.25;83.44;99723.23;113298;1203;64394;-80
2021/04/13 02:30:41;;;;;;;11.00;9.90;;;;;;;1.26;83.14;99728.47;113270;1203;64525;-79
2021/04/13 02:33:19;;;;;;;12.25;11.05;;;;;;;1.27;83.29;99727.56;113245;1203;64398;-79
2021/04/13 02:35:47;;;;;;;13.00;10.95;;;;;;;1.28;83.26;99726.66;113091;1203;64409;-79
2021/04/13 02:38:19;;;;;;;12.30;11.10;;;;;;;1.27;83.25;99732.81;113140;1203;64359;-79
2021/04/13 02:40:57;;;;;;;12.60;11.40;;;;;;;1.29;83.24;99738.02;113068;1203;64396;-79
2021/04/13 02:43:32;;;;;;;12.37;11.00;;;;;;;1.30;83.20;99740.63;113129;1203;64382;-79
2021/04/13 02:46:02;;;;;;;11.00;9.90;;;;;;;1.30;83.22;99724.02;113312;1203;64451;-78
2021/04/13 02:48:40;;;;;;;11.57;9.80;;;;;;;1.35;83.22;99731.82;113227;1203;64401;-78
2021/04/13 02:51:13;;;;;;;11.95;9.85;;;;;;;1.42;83.57;99726.44;113244;1203;64382;-78
2021/04/13 02:53:50;;;;;;;11.47;10.27;;;;;;;1.41;83.04;99729.94;113266;1203;64483;-78
2021/04/13 02:56:42;;;;;;;12.60;11.37;;;;;;;1.38;83.18;99729.14;113369;1203;64650;-79
2021/04/13 02:59:11;;;;;;;12.00;10.25;;;;;;;1.36;83.20;99731.78;113250;1203;64483;-79
2021/04/13 03:01:41;;;;;;;12.65;11.40;;;;;;;1.35;83.26;99734.45;113272;1203;64436;-80
2021/04/13 03:04:09;;;;;;;;;;;;;;;1.29;83.18;99735.39;113185;1210;64385;-78
2021/04/13 03:06:43;;;;;;;12.10;10.73;;;;;;;1.28;83.26;99736.30;113095;1203;64458;-78
2021/04/13 03:09:13;;;;;;;11.97;10.77;;;;;;;1.29;83.16;99735.39;113131;1203;64361;-78
2021/04/13 03:11:50;;;;;;;10.90;9.80;;;;;;;1.33;83.28;99742.34;113204;1203;64401;-78
2021/04/13 03:14:20;;;;;;;11.13;9.67;;;;;;;1.34;83.35;99738.80;113393;1203;64382;-78
2021/04/13 03:16:50;;;;;;;11.40;10.23;;;;;;;1.33;83.03;99736.23;113162;1203;64369;-78
2021/04/13 03:19:18;;;;;;;;;;;;;;;1.29;83.02;99738.91;113137;1210;64397;-78
2021/04/13 03:21:54;;;;;;;11.73;10.53;;;;;;;1.28;83.26;99742.41;113084;1203;64503;-78
2021/04/13 03:24:29;;;;;;;13.63;12.23;;;;;;;1.25;83.12;99742.47;113325;1203;64477;-79
2021/04/13 03:27:01;;;;;;;13.85;12.50;;;;;;;1.24;83.49;99742.52;113371;1203;64397;-79
2021/04/13 03:29:28;;;;;;;12.50;11.20;;;;;;;1.21;83.47;99738.18;113407;1203;64394;-79
2021/04/13 03:31:56;;;;;;;14.57;11.47;;;;;;;1.22;83.44;99745.16;113345;1203;64474;-79
2021/04/13 03:34:24;;;;;;;15.17;12.43;;;;;;;1.25;83.28;99752.11;113245;1203;64394;-79
2021/04/13 03:36:53;;;;;;;13.93;11.03;;;;;;;1.29;83.39;99751.15;113336;1203;64532;-79
2021/04/13 03:39:31;;;;;;;15.75;12.85;;;;;;;1.28;83.49;99752.91;113272;1203;64455;-78
2021/04/13 03:41:59;;;;;;;12.10;9.90;;;;;;;1.29;83.57;99764.28;113371;1203;64503;-79
2021/04/13 03:44:26;;;;;;;10.00;8.90;;;;;;;1.25;83.39;99771.34;113381;1203;64564;-78
2021/04/13 03:46:54;;;;;;;8.80;7.90;;;;;;;1.24;83.73;99767.00;113292;1203;64371;-78
2021/04/13 03:49:34;;;;;;;9.10;8.10;;;;;;;1.19;83.52;99771.46;113214;1203;64500;-78
2021/04/13 03:52:22;;;;;;;10.83;8.47;;;;;;;1.21;83.62;99774.94;113225;1203;64448;-79
2021/04/13 03:54:49;;;;;;;8.90;8.00;;;;;;;1.25;83.71;99773.11;113196;1203;64369;-78
2021/04/13 03:57:42;;;;;;;9.03;8.13;;;;;;;1.26;83.53;99775.73;113205;1203;64420;-78
2021/04/13 04:00:14;;;;;;;8.00;7.20;;;;;;;1.28;83.44;99770.44;113081;1203;64496;-79
2021/04/13 04:02:41;;;;;;;8.50;7.70;;;;;;;1.30;83.49;99773.91;113143;1203;64369;-80
2021/04/13 04:05:19;;;;;;;8.50;7.70;;;;;;;1.31;83.39;99767.75;113176;1203;64401;-79
2021/04/13 04:08:04;;;;;;;9.27;8.37;;;;;;;1.27;83.51;99772.20;113411;1203;64375;-79
2021/04/13 04:10:42;;;;;;;11.00;9.15;;;;;;;1.26;83.28;99788.86;113370;1203;64392;-79
2021/04/13 04:13:28;;;;;;;9.25;8.35;;;;;;;1.27;83.27;99795.83;113307;1203;64548;-79
2021/04/13 04:16:10;;;;;;;7.73;6.93;;;;;;;1.28;83.46;99791.44;113376;1203;64571;-79
2021/04/13 04:18:49;;;;;;;8.60;7.00;;;;;;;1.29;83.43;99790.53;113129;1203;64369;-79
2021/04/13 04:21:39;;;;;;;8.80;8.00;;;;;;;1.30;83.27;99793.15;113093;1203;64439;-79
2021/04/13 04:24:27;;;;;;;8.78;7.50;;;;;;;1.28;83.54;99781.80;113173;1203;64369;-79
2021/04/13 04:27:18;;;;;;;7.50;6.67;;;;;;;1.25;83.71;99784.48;113110;1203;64541;-80
2021/04/13 04:29:48;;;;;;;8.20;5.90;;;;;;;1.18;83.91;99782.84;113319;1203;64471;-78
2021/04/13 04:32:19;;;;;;;6.28;4.95;;;;;;;1.16;83.87;99784.64;113280;1203;64403;-79
2021/04/13 04:34:46;;;;;;;6.77;5.97;;;;;;;1.10;84.11;99796.08;113127;1203;64388;-79
2021/04/13 04:37:19;;;;;;;6.03;4.83;;;;;;;1.08;84.17;99794.41;113124;1203;64366;-80
2021/04/13 04:39:46;;;;;;;7.55;5.15;;;;;;;1.08;84.34;99797.89;113130;1203;64397;-79
2021/04/13 04:42:20;;;;;;;14.15;7.95;;;;;;;1.07;84.38;99798.76;113335;1203;64407;-79
2021/04/13 04:45:15;;;;;;;8.93;6.13;;;;;;;1.06;84.56;99801.42;113199;1203;64391;-79
2021/04/13 04:47:44;;;;;;;8.83;6.97;;;;;;;1.01;84.52;99801.48;113358;1203;64359;-79
2021/04/13 04:50:15;;;;;;;11.80;8.30;;;;;;;1.01;84.41;99811.98;113395;1203;64843;-81
2021/04/13 04:52:45;;;;;;;10.23;7.60;;;;;;;1.02;84.30;99811.08;113356;1203;64608;-80
2021/04/13 04:55:13;;;;;;;8.37;7.43;;;;;;;1.04;84.41;99804.06;113346;1203;64557;-80
2021/04/13 04:57:40;;;;;;;9.05;7.80;;;;;;;1.09;84.35;99811.88;113417;1203;64394;-78
2021/04/13 05:00:08;;;;;;;7.50;5.75;;;;;;;1.14;84.21;99819.69;113340;1203;64358;-79
2021/04/13 05:02:34;;;;;;;7.33;6.53;;;;;;;1.17;84.24;99830.13;113371;1203;64349;-79
2021/04/13 05:05:03;;;;;;;11.20;6.67;;;;;;;1.23;84.19;99827.41;113283;1203;64355;-78
2021/04/13 05:07:30;;;;;;;8.20;6.80;;;;;;;1.30;83.88;99834.30;113409;1203;64416;-79
2021/04/13 05:09:56;;;;;;;10.47;8.93;;;;;;;1.31;83.69;99831.63;113339;1203;64442;-80
2021/04/13 05:12:23;;;;;;;10.35;8.65;;;;;;;1.38;83.83;99834.18;113470;1203;64388;-81
2021/04/13 05:14:49;;;;;;;10.50;8.97;;;;;;;1.44;83.70;99834.94;113313;1203;64365;-80
2021/04/13 05:17:16;;;;;;;11.10;10.00;;;;;;;1.52;83.66;99834.81;113291;1203;64852;-80
2021/04/13 05:19:42;;;;;;;9.95;8.95;;;;;;;1.63;83.73;99824.98;113302;1203;64433;-80
2021/04/13 05:22:09;;;;;;;12.13;9.20;;;;;;;1.68;83.45;99831.02;113185;1203;64452;-79
2021/04/13 05:24:36;;;;;;;10.80;8.65;;;;;;;1.73;83.31;99838.83;113116;1203;64372;-79
2021/04/13 05:27:03;;;;;;;11.40;10.20;;;;;;;1.75;83.26;99830.03;113183;1203;64407;-79
2021/04/13 05:29:29;;;;;;;10.05;9.05;;;;;;;1.71;82.96;99833.63;113265;1203;64513;-78
2021/04/13 05:31:56;;;;;;;10.83;9.73;;;;;;;1.66;82.99;99831.94;113260;1203;64388;-79
2021/04/13 05:34:22;;;;;;;9.55;8.50;;;;;;;1.65;83.19;99840.73;113183;1203;64397;-79
2021/04/13 05:36:52;;;;;;;11.10;10.00;;;;;;;1.64;83.08;99844.27;113187;1203;64388;-78
2021/04/13 05:39:20;;;;;;;11.25;9.80;;;;;;;1.65;83.06;99840.73;113420;1203;64331;-79
2021/04/13 05:41:48;;;;;;;10.65;9.60;;;;;;;1.69;83.38;99837.17;113402;1203;64388;-79
2021/04/13 05:44:15;;;;;;;10.15;9.25;;;;;;;1.74;83.05;99830.94;113185;1203;64439;-79
2021/04/13 05:46:42;;;;;;;9.67;8.77;;;;;;;1.81;83.17;99836.94;113348;1203;64385;-78
2021/04/13 05:49:09;;;;;;;11.40;10.20;;;;;;;1.88;82.72;99842.96;113397;1203;64443;-78
2021/04/13 05:51:36;;;;;;;11.40;10.30;;;;;;;1.91;82.59;99841.14;113371;1203;64378;-79
2021/04/13 05:54:03;;;;;;;10.75;9.40;;;;;;;1.94;82.46;99842.84;113384;1203;64378;-80
2021/04/13 05:56:33;;;;;;;13.20;11.90;;;;;;;1.95;82.63;99847.22;113400;1203;64550;-80
2021/04/13 05:59:00;;;;;;;12.80;11.10;;;;;;;1.89;82.57;99842.92;113373;1203;64400;-79
2021/04/13 06:01:30;;;;;;;12.43;11.13;;;;;;;1.89;82.60;99845.55;113421;1203;64365;-79
2021/04/13 06:03:58;;;;;;;10.63;9.37;;;;;;;1.91;82.48;99835.88;113300;1203;64425;-79
2021/04/13 06:06:24;;;;;;;9.30;8.00;;;;;;;1.93;82.15;99841.13;113364;1203;64593;-79
2021/04/13 06:08:52;;;;;;;10.00;8.90;;;;;;;1.96;82.33;99841.92;113356;1203;64423;-79
2021/04/13 06:11:24;;;;;;;13.40;10.10;;;;;;;2.07;82.14;99840.86;113164;1203;64394;-79
2021/04/13 06:13:56;;;;;;;12.30;9.80;;;;;;;2.12;81.96;99853.02;113429;1203;64445;-79
2021/04/13 06:16:26;;;;;;;15.47;10.33;;;;;;;2.18;82.11;99858.15;113380;1203;64356;-80
2021/04/13 06:18:53;;;;;;;13.05;10.80;;;;;;;2.25;81.89;99847.53;113296;1203;64366;-80
2021/04/13 06:21:20;;;;;;;12.33;10.30;;;;;;;2.32;81.86;99849.16;113368;1203;64519;-80
2021/04/13 06:23:46;;;;;;;10.95;8.40;;;;;;;2.37;81.52;99847.27;113368;1203;64384;-80
2021/04/13 06:26:14;;;;;;;11.27;8.80;;;;;;;2.39;81.40;99859.50;113219;1203;64543;-80
2021/04/13 06:28:41;;;;;;;10.45;8.80;;;;;;;2.44;81.29;99848.89;113387;1203;64353;-80
2021/04/13 06:31:08;;;;;;;12.10;9.10;;;;;;;2.50;81.19;99847.90;113355;1203;64480;-80
2021/04/13 06:33:34;;;;;;;10.17;8.77;;;;;;;2.55;80.67;99856.56;113152;1203;64551;-80
2021/04/13 06:36:05;;;;;;;12.17;9.30;;;;;;;2.59;80.35;99863.52;113192;1203;64401;-80
2021/04/13 06:38:32;;;;;;;13.80;10.80;;;;;;;2.69;80.79;99853.67;113310;1203;64379;-79
2021/04/13 06:41:10;;;;;;;11.80;9.00;;;;;;;2.83;80.65;99864.77;113480;1203;64446;-80
2021/04/13 06:44:15;;;;;;;10.55;8.95;;;;;;;3.01;80.35;99858.23;113219;1203;64472;-80
2021/04/13 06:47:11;;;;;;;12.40;10.00;;;;;;;3.26;79.94;99863.80;113182;1203;64384;-79
2021/04/13 06:49:57;;;;;;;13.50;10.50;;;;;;;3.42;79.47;99865.19;113059;1203;64388;-79
2021/04/13 06:52:47;;;;;;;11.30;9.70;;;;;;;3.46;79.09;99865.97;113120;1203;64391;-80
2021/04/13 06:55:22;;;;;;;11.30;9.25;;;;;;;3.39;79.04;99877.55;113230;1203;64464;-79
2021/04/13 06:58:32;;;;;;;12.55;9.90;;;;;;;3.40;79.19;99884.58;113331;1203;64519;-79
2021/04/13 07:01:22;;;;;;;11.80;8.80;;;;;;;3.48;79.45;99885.26;113135;1203;64429;-79
2021/04/13 07:04:02;;;;;;;12.30;10.30;;;;;;;3.66;79.26;99887.45;113128;1203;64423;-79
2021/04/13 07:06:43;;;;;;;15.03;10.80;;;;;;;3.83;78.96;99883.52;113309;1203;64388;-79
2021/04/13 07:09:24;;;;;;;10.90;9.60;;;;;;;3.96;78.58;99877.03;113332;1203;64401;-80
2021/04/13 07:11:59;;;;;;;11.33;8.80;;;;;;;4.08;77.94;99879.36;113355;1203;64452;-80
2021/04/13 07:14:32;;;;;;;9.60;8.70;;;;;;;4.04;77.59;99876.83;113426;1203;64397;-79
2021/04/13 07:17:08;;;;;;;10.80;8.90;;;;;;;3.95;77.78;99877.95;113273;1203;64400;-79
2021/04/13 07:19:38;;;;;;;10.20;8.45;;;;;;;3.93;77.89;99877.11;113215;1203;64410;-79
2021/04/13 07:22:28;;;;;;;11.70;10.05;;;;;;;3.87;77.49;99874.61;113351;1203;64406;-79
2021/04/13 07:25:01;;;;;;;11.97;10.63;;;;;;;3.75;77.93;99875.80;113103;1203;64468;-79
2021/04/13 07:27:45;;;;;;;15.03;12.30;;;;;;;3.71;77.58;99885.56;113308;1203;64321;-79
2021/04/13 07:30:27;;;;;;;14.90;11.80;;;;;;;3.78;77.95;99877.50;113199;1203;64922;-79
2021/04/13 07:32:57;;;;;;;10.53;9.53;;;;;;;3.87;77.65;99878.14;113251;1203;64410;-79
2021/04/13 07:35:28;;;;;;;10.97;9.13;;;;;;;3.90;77.49;99871.92;113148;1203;64388;-79
2021/04/13 07:37:56;;;;;;;11.90;9.45;;;;;;;3.88;77.29;99876.36;113116;1203;64426;-80
2021/04/13 07:40:36;;;;;;;16.35;14.65;;;;;;;3.89;77.85;99865.76;113268;1203;64464;-79
2021/04/13 07:43:23;;;;;;;14.23;12.23;;;;;;;3.98;77.88;99871.70;113267;1203;64468;-79
2021/04/13 07:46:15;;;;;;;15.37;12.60;;;;;;;4.05;77.70;99884.69;113295;1203;64378;-79
2021/04/13 07:48:54;;;;;;;13.37;10.90;;;;;;;4.09;77.47;99883.72;113312;1203;64326;-79
2021/04/13 07:51:36;;;;;;;11.90;10.60;;;;;;;4.08;77.40;99883.74;113228;1203;64857;-83
2021/04/13 07:54:39;;;;;;;12.70;11.40;;;;;;;4.03;77.62;99889.16;113612;1203;64500;-81
2021/04/13 07:57:18;;;;;;;13.30;11.45;;;;;;;4.04;77.75;99887.38;113441;1203;64362;-82
2021/04/13 08:00:08;;;;;;;13.40;11.75;;;;;;;3.98;77.52;99884.88;113817;1203;64426;-80
2021/04/13 08:02:35;;;;;;;14.80;11.03;;;;;;;3.95;77.72;99880.59;113685;1203;64410;-79
2021/04/13 08:05:06;;;;;;;13.10;11.70;;;;;;;3.92;78.01;99886.80;113313;1203;64430;-84
2021/04/13 08:07:43;;;;;;;15.50;12.95;;;;;;;3.90;77.72;99893.02;113300;1203;64406;-83
2021/04/13 08:10:12;;;;;;;14.10;12.80;;;;;;;3.90;77.98;99893.88;113165;1203;64391;-79
2021/04/13 08:12:50;;;;;;;;;;;;;;;3.87;77.79;99895.70;113164;1211;64435;-79
2021/04/13 08:15:20;;;;;;;16.30;13.10;;;;;;;3.86;77.79;99894.84;113158;1203;64455;-79
2021/04/13 08:18:22;;;;;;;15.17;13.57;;;;;;;3.93;78.01;99899.07;113147;1203;64385;-80
2021/04/13 08:20:50;;;;;;;17.90;14.80;;;;;;;3.90;77.72;99896.52;113142;1203;64564;-80
2021/04/13 08:23:23;;;;;;;17.85;14.70;;;;;;;3.94;77.67;99899.93;113375;1203;64394;-80
2021/04/13 08:25:51;;;;;;;14.90;13.00;;;;;;;3.96;77.48;99896.34;113349;1203;64394;-80
2021/04/13 08:28:36;;;;;;;15.45;13.85;;;;;;;3.97;77.31;99894.57;113195;1203;64432;-80
2021/04/13 08:34:18;;;;;;;13.65;11.35;;;;;;;3.90;76.78;99891.24;113500;1203;64375;-81
2021/04/13 08:36:50;;;;;;;16.53;14.83;;;;;;;3.83;76.98;99896.70;113325;1203;64429;-81
2021/04/13 08:39:18;;;;;;;17.30;14.17;;;;;;;3.73;77.17;99893.42;113489;1203;64468;-81
2021/04/13 08:41:57;;;;;;;16.55;13.35;;;;;;;3.66;77.13;99881.28;113286;1203;64388;-81
2021/04/13 08:44:37;;;;;;;16.00;14.30;;;;;;;3.64;77.42;99883.12;113218;1203;64318;-81
2021/04/13 08:47:11;;;;;;;17.93;14.03;;;;;;;3.58;76.93;99889.41;113431;1203;64324;-83
2021/04/13 08:49:50;;;;;;;18.10;13.95;;;;;;;3.55;77.23;99888.59;113445;1203;64432;-82
2021/04/13 08:52:23;;;;;;;27.10;15.67;;;;;;;3.64;77.41;99883.98;113335;1203;64510;-83
2021/04/13 08:55:05;;;;;;;33.00;15.05;;;;;;;3.78;77.42;99880.13;113264;1203;64375;-82
2021/04/13 08:57:40;;;;;;;17.03;13.80;;;;;;;3.83;76.68;99881.75;113336;1203;64503;-83
2021/04/13 09:00:25;;;;;;;18.80;13.65;;;;;;;3.91;76.95;99871.00;113279;1203;64378;-81
2021/04/13 09:02:59;;;;;;;15.60;13.00;;;;;;;4.08;76.40;99865.28;113445;1203;64468;-81
2021/04/13 09:05:28;;;;;;;13.20;10.13;;;;;;;4.12;75.22;99857.25;113387;1203;64426;-81
2021/04/13 09:08:01;;;;;;;10.27;9.03;;;;;;;4.14;75.45;99858.08;113430;1203;64375;-80
2021/04/13 09:11:03;;;;;;;9.50;7.80;;;;;;;4.17;75.55;99847.44;113578;1203;64461;-81
2021/04/13 09:13:40;;;;;;;12.80;9.70;;;;;;;4.24;75.86;99855.17;113448;1203;64406;-81
2021/04/13 09:16:07;;;;;;;11.47;10.37;;;;;;;4.31;75.46;99862.03;113803;1203;64419;-81
2021/04/13 09:18:46;;;;;;;12.03;9.47;;;;;;;4.36;74.66;99855.71;113745;1203;64385;-81
2021/04/13 09:21:37;;;;;;;9.00;8.10;;;;;;;4.38;74.82;99859.18;113560;1203;64394;-81
2021/04/13 09:24:14;;;;;;;12.30;7.50;;;;;;;4.32;74.67;99855.86;113170;1203;64458;-80
2021/04/13 09:27:03;;;;;;;9.90;8.23;;;;;;;4.25;74.95;99863.06;113199;1203;64657;-80
2021/04/13 09:29:50;;;;;;;11.10;8.90;;;;;;;4.16;74.96;99866.83;113156;1203;64433;-80
2021/04/13 09:32:23;;;;;;;10.50;8.50;;;;;;;4.21;74.88;99860.55;113239;1203;64340;-79
2021/04/13 09:35:17;;;;;;;10.60;8.60;;;;;;;4.26;74.37;99856.01;113369;1203;64388;-81
2021/04/13 09:38:08;;;;;;;12.10;9.55;;;;;;;4.31;74.58;99854.97;113324;1203;64468;-81
2021/04/13 09:41:00;;;;;;;10.15;7.60;;;;;;;4.40;74.25;99862.66;113338;1203;64500;-81
2021/04/13 09:44:04;;;;;;;9.00;8.05;;;;;;;4.64;74.44;99849.67;113248;1203;64934;-81
2021/04/13 09:46:43;;;;;;;10.30;7.60;;;;;;;5.03;72.33;99844.97;113335;1203;64398;-81
2021/04/13 09:49:33;;;;;;;8.50;7.63;;;;;;;5.21;71.88;99842.66;113456;1203;64452;-82
2021/04/13 09:52:30;;;;;;;8.10;6.30;;;;;;;5.45;71.67;99841.89;113309;1203;64700;-81
2021/04/13 09:55:04;;;;;;;6.70;5.85;;;;;;;5.67;70.68;99827.96;113196;1203;64586;-81
2021/04/13 09:57:30;;;;;;;7.85;6.50;;;;;;;5.76;70.56;99827.63;113189;1203;64417;-80
2021/04/13 10:00:10;;;;;;;7.85;5.60;;;;;;;5.77;69.24;99829.38;113224;1203;64866;-80
2021/04/13 10:03:00;;;;;;;5.75;5.15;;;;;;;5.64;69.01;99836.86;113210;1203;64467;-81
2021/04/13 10:05:37;;;;;;;8.80;6.30;;;;;;;5.55;69.77;99829.22;113242;1203;64353;-80
2021/04/13 10:08:09;;;;;;;7.50;6.03;;;;;;;5.38;70.11;99823.63;113280;1203;64541;-80
2021/04/13 10:10:56;;;;;;;6.95;5.50;;;;;;;5.26;70.78;99831.02;113390;1203;64509;-80
2021/04/13 10:13:32;;;;;;;12.15;6.15;;;;;;;5.18;70.87;99824.26;113437;1203;64368;-80
2021/04/13 10:16:04;;;;;;;8.87;6.67;;;;;;;5.17;70.93;99823.41;113203;1203;64378;-81
2021/04/13 10:18:37;;;;;;;8.25;5.75;;;;;;;5.09;70.32;99833.34;113319;1203;64433;-82
2021/04/13 10:21:34;;;;;;;9.80;6.60;;;;;;;4.94;70.97;99832.03;113388;1203;64809;-81
2021/04/13 10:24:23;;;;;;;6.83;5.17;;;;;;;4.74;70.62;99823.84;113436;1203;64382;-80
2021/04/13 10:27:11;;;;;;;7.10;5.75;;;;;;;4.72;71.53;99823.05;113434;1203;64327;-81
2021/04/13 10:30:16;;;;;;;8.80;6.30;;;;;;;4.76;70.77;99822.02;113501;1203;64362;-81
2021/04/13 10:32:55;;;;;;;10.20;6.10;;;;;;;4.58;70.91;99816.39;113148;1203;64397;-79
2021/04/13 10:35:43;;;;;;;9.65;5.75;;;;;;;4.60;70.62;99830.39;113255;1203;64483;-82
2021/04/13 10:38:31;;;;;;;6.10;5.25;;;;;;;4.68;70.81;99831.95;113364;1203;64474;-82
2021/04/13 10:41:20;;;;;;;6.45;4.60;;;;;;;4.88;71.02;99824.30;113604;1203;64352;-81
2021/04/13 10:44:23;;;;;;;5.75;4.85;;;;;;;5.04;70.85;99819.41;113500;1203;64364;-81
2021/04/13 10:46:59;;;;;;;6.87;4.67;;;;;;;5.14;70.50;99822.64;113928;1203;64528;-82
2021/04/13 10:49:41;;;;;;;8.10;5.20;;;;;;;5.21;69.48;99811.84;113825;1203;64394;-83
2021/04/13 10:52:27;;;;;;;6.80;5.20;;;;;;;5.11;69.96;99828.00;113375;1203;64343;-84
2021/04/13 10:55:03;;;;;;;7.83;4.63;;;;;;;5.11;70.11;99813.03;113307;1203;64512;-85
2021/04/13 10:58:03;;;;;;;5.40;4.60;;;;;;;5.12;69.85;99809.47;113281;1203;64416;-84
2021/04/13 11:00:57;;;;;;;8.15;5.55;;;;;;;5.09;70.20;99814.86;113173;1203;64497;-83
2021/04/13 11:03:58;;;;;;;8.43;6.60;;;;;;;5.05;70.34;99808.81;113290;1203;64410;-83
2021/04/13 11:06:47;;;;;;;10.20;8.20;;;;;;;5.14;70.78;99804.15;113477;1203;64438;-84
2021/04/13 11:09:32;;;;;;;12.40;8.60;;;;;;;5.14;70.72;99798.86;113519;1203;64835;-84
2021/04/13 11:12:23;;;;;;;11.30;8.30;;;;;;;5.04;70.05;99800.92;113436;1203;64464;-84
2021/04/13 11:15:03;;;;;;;9.47;7.83;;;;;;;5.11;70.17;99796.30;113317;1203;64445;-84
2021/04/13 11:17:45;;;;;;;15.15;9.50;;;;;;;5.11;70.19;99801.58;113420;1203;64427;-84
2021/04/13 11:20:22;;;;;;;14.25;10.25;;;;;;;5.02;69.52;99787.75;113310;1203;64433;-84
2021/04/13 11:23:04;;;;;;;14.10;11.00;;;;;;;4.91;70.83;99787.23;113291;1203;64385;-83
2021/04/13 11:26:05;;;;;;;10.90;9.80;;;;;;;4.83;70.44;99795.39;113366;1203;64403;-84
2021/04/13 11:28:53;;;;;;;14.00;11.13;;;;;;;4.77;70.43;99789.44;113242;1203;64407;-82
2021/04/13 11:31:56;;;;;;;9.70;8.70;;;;;;;4.71;70.89;99792.25;113232;1203;64391;-82
2021/04/13 11:35:03;;;;;;;10.60;9.25;;;;;;;4.73;70.40;99785.16;113285;1203;64420;-82
2021/04/13 11:37:50;;;;;;;12.43;11.20;;;;;;;4.74;70.83;99786.88;113416;1203;64496;-82
2021/04/13 11:40:38;;;;;;;16.53;11.80;;;;;;;4.79;71.08;99785.84;113453;1203;64388;-82
2021/04/13 11:43:10;;;;;;;13.90;11.83;;;;;;;4.79;70.85;99782.31;113494;1203;64704;-82
2021/04/13 11:45:42;;;;;;;12.47;9.80;;;;;;;4.72;70.28;99784.30;113496;1203;64397;-83
2021/04/13 11:48:47;;;;;;;12.70;9.20;;;;;;;4.90;69.98;99789.91;113458;1203;64420;-83
2021/04/13 11:51:24;;;;;;;12.97;10.53;;;;;;;5.25;69.38;99787.02;113459;1203;64397;-83
2021/04/13 11:53:52;;;;;;;13.65;11.75;;;;;;;5.49;68.89;99782.70;113341;1203;64337;-82
2021/04/13 11:56:21;;;;;;;13.90;11.00;;;;;;;5.75;68.09;99761.59;113260;1203;64390;-82
2021/04/13 11:59:17;;;;;;;13.65;10.35;;;;;;;5.82;67.30;99773.66;113403;1203;64471;-82
2021/04/13 12:01:47;;;;;;;11.03;9.50;;;;;;;5.97;66.81;99767.86;113383;1203;64395;-83
2021/04/13 12:04:20;;;;;;;10.70;9.70;;;;;;;5.98;66.80;99768.72;113422;1203;64425;-83
2021/04/13 12:07:10;;;;;;;11.60;10.43;;;;;;;5.90;66.88;99751.33;113474;1203;64378;-82
2021/04/13 12:10:00;;;;;;;10.85;8.80;;;;;;;5.77;66.63;99757.97;113234;1203;64461;-82
2021/04/13 12:12:29;;;;;;;10.60;9.30;;;;;;;5.88;66.14;99744.36;113187;1203;64388;-82
2021/04/13 12:15:16;;;;;;;11.50;9.87;;;;;;;5.82;66.73;99753.39;113209;1203;64400;-82